Time;durP1;ratioP1;P1;durP2;ratioP2;P2;SDS_P1;SDS_P2;PMS_P1;PMS_P2;Temp;Humidity;BMP_temperature;BMP_pressure;BME280_temperature;BME280_humidity;BME280_pressure;Samples;Min_cycle;Max_cycle;Signal;HPM_P1;HPM_P2
2022/11/23 00:00:22;;;;;;;12.40;8.82;;;7.90;99.90;;;;;;5051135;28;20489;-68
2022/11/23 00:02:56;;;;;;;13.07;8.55;;;7.90;99.90;;;;;;5051615;28;20045;-68
2022/11/23 00:05:22;;;;;;;18.15;9.45;;;7.90;99.90;;;;;;5050585;28;20108;-68
2022/11/23 00:07:47;;;;;;;15.23;8.10;;;7.90;99.90;;;;;;5066785;28;20037;-68
2022/11/23 00:10:13;;;;;;;16.48;8.57;;;7.90;99.90;;;;;;5071316;28;20504;-68
2022/11/23 00:12:39;;;;;;;22.73;9.43;;;7.90;99.90;;;;;;5071029;28;20174;-69
2022/11/23 00:15:05;;;;;;;13.35;8.15;;;7.90;99.90;;;;;;5070880;28;20048;-68
2022/11/23 00:17:31;;;;;;;15.23;9.73;;;7.90;99.90;;;;;;5071236;28;20040;-68
2022/11/23 00:19:57;;;;;;;13.70;8.43;;;7.90;99.90;;;;;;5071745;28;20060;-69
2022/11/23 00:22:23;;;;;;;17.20;8.23;;;7.90;99.90;;;;;;5071847;28;20116;-68
2022/11/23 00:24:49;;;;;;;14.88;8.65;;;7.90;99.90;;;;;;5071099;28;20090;-68
2022/11/23 00:27:14;;;;;;;15.68;8.55;;;7.90;99.90;;;;;;5071478;28;20040;-68
2022/11/23 00:29:40;;;;;;;12.23;7.53;;;8.00;99.90;;;;;;5070974;28;20037;-68
2022/11/23 00:32:05;;;;;;;18.58;8.48;;;8.00;99.90;;;;;;5070833;28;20149;-69
2022/11/23 00:34:31;;;;;;;17.63;8.38;;;8.00;99.90;;;;;;5052672;28;20574;-68
2022/11/23 00:36:56;;;;;;;12.20;7.50;;;8.00;99.90;;;;;;5070995;28;20036;-68
2022/11/23 00:39:22;;;;;;;8.35;6.97;;;8.00;99.90;;;;;;5070537;28;20047;-68
2022/11/23 00:41:47;;;;;;;11.10;7.10;;;8.00;99.90;;;;;;5069784;28;20045;-68
2022/11/23 00:44:13;;;;;;;12.88;7.90;;;8.00;99.90;;;;;;5070130;28;20090;-68
2022/11/23 00:46:38;;;;;;;14.07;7.53;;;8.00;99.90;;;;;;5070646;28;20063;-68
2022/11/23 00:49:05;;;;;;;11.40;7.20;;;8.00;99.90;;;;;;5070521;28;20068;-68
2022/11/23 00:51:34;;;;;;;13.70;6.63;;;8.00;99.90;;;;;;5070921;28;20041;-68
2022/11/23 00:54:01;;;;;;;11.30;7.40;;;8.00;99.90;;;;;;5070285;28;20047;-68
2022/11/23 00:56:27;;;;;;;14.07;7.82;;;8.00;99.90;;;;;;5070760;28;20044;-68
2022/11/23 00:58:55;;;;;;;10.75;7.07;;;8.00;99.90;;;;;;5070415;28;20182;-68
2022/11/23 01:01:23;;;;;;;14.60;7.50;;;8.00;99.90;;;;;;5069335;28;20123;-68
2022/11/23 01:03:51;;;;;;;14.05;7.10;;;8.00;99.90;;;;;;5069926;28;20117;-68
2022/11/23 01:06:29;;;;;;;15.00;6.78;;;8.00;99.90;;;;;;5052181;28;20552;-68
2022/11/23 01:09:01;;;;;;;10.85;7.38;;;8.00;99.90;;;;;;5070625;28;20056;-68
2022/11/23 01:11:29;;;;;;;10.32;6.90;;;8.00;99.90;;;;;;5070675;28;20062;-69
2022/11/23 01:13:55;;;;;;;11.23;7.10;;;8.00;99.90;;;;;;5070283;28;20048;-69
2022/11/23 01:16:26;;;;;;;8.40;5.93;;;8.00;99.90;;;;;;5070405;28;20040;-68
2022/11/23 01:18:52;;;;;;;8.98;6.40;;;8.00;99.90;;;;;;5069071;28;20117;-68
2022/11/23 01:21:18;;;;;;;9.25;6.45;;;8.00;99.90;;;;;;5074343;28;20037;-69
2022/11/23 01:23:43;;;;;;;10.82;5.95;;;8.00;99.90;;;;;;5073906;28;20048;-68
2022/11/23 01:26:10;;;;;;;8.93;6.68;;;8.00;99.90;;;;;;5074116;28;20040;-68
2022/11/23 01:28:38;;;;;;;9.25;6.20;;;8.00;99.90;;;;;;5074126;28;20088;-68
2022/11/23 01:31:06;;;;;;;9.05;6.30;;;8.00;99.90;;;;;;5072813;28;20052;-68
2022/11/23 01:33:31;;;;;;;11.13;5.57;;;8.00;99.90;;;;;;5073813;28;20036;-68
2022/11/23 01:35:57;;;;;;;10.15;5.50;;;8.00;99.90;;;;;;5073811;28;20046;-68
2022/11/23 01:38:23;;;;;;;10.73;6.25;;;8.00;99.90;;;;;;5056177;28;20078;-69
2022/11/23 01:40:48;;;;;;;8.45;5.90;;;8.10;99.90;;;;;;5074189;28;20071;-69
2022/11/23 01:43:16;;;;;;;7.90;5.75;;;8.00;99.90;;;;;;5073515;28;20083;-68
2022/11/23 01:45:51;;;;;;;7.50;5.47;;;8.10;99.90;;;;;;5073892;28;20063;-68
2022/11/23 01:48:22;;;;;;;9.32;5.82;;;8.10;99.90;;;;;;5073949;28;20033;-68
2022/11/23 01:50:50;;;;;;;10.10;5.70;;;8.10;99.90;;;;;;5072609;28;20443;-68
2022/11/23 01:53:16;;;;;;;8.85;5.40;;;8.10;99.90;;;;;;5055500;28;20241;-68
2022/11/23 01:55:45;;;;;;;6.38;5.10;;;8.10;99.90;;;;;;5073626;28;20494;-68
2022/11/23 01:58:13;;;;;;;12.70;5.95;;;8.10;99.90;;;;;;5073610;28;20040;-68
2022/11/23 02:00:38;;;;;;;12.00;5.93;;;8.10;99.90;;;;;;5074006;28;20068;-67
2022/11/23 02:03:05;;;;;;;10.93;5.68;;;8.10;99.90;;;;;;5073629;28;20083;-68
2022/11/23 02:05:42;;;;;;;13.02;6.57;;;8.10;99.90;;;;;;5073397;28;20040;-68
2022/11/23 02:08:09;;;;;;;8.38;6.03;;;8.10;99.90;;;;;;5073463;28;20040;-68
2022/11/23 02:10:35;;;;;;;10.65;6.15;;;8.20;99.90;;;;;;5073724;28;20131;-67
2022/11/23 02:13:10;;;;;;;13.35;7.10;;;8.10;99.90;;;;;;5073535;28;20048;-68
2022/11/23 02:15:36;;;;;;;12.57;5.90;;;8.10;99.90;;;;;;5073096;28;20044;-68
2022/11/23 02:18:04;;;;;;;8.75;5.80;;;8.20;99.90;;;;;;5073511;28;20158;-68
2022/11/23 02:20:31;;;;;;;13.43;6.32;;;8.10;99.90;;;;;;5072906;28;20040;-68
2022/11/23 02:23:09;;;;;;;11.48;6.30;;;8.10;99.90;;;;;;5073299;28;20036;-68
2022/11/23 02:25:44;;;;;;;6.65;5.95;;;8.10;99.90;;;;;;5073038;28;20447;-68
2022/11/23 02:28:12;;;;;;;9.52;6.30;;;8.10;99.90;;;;;;5073044;28;20040;-69
2022/11/23 02:30:39;;;;;;;11.85;6.05;;;8.10;99.90;;;;;;5072955;28;20040;-68
2022/11/23 02:33:05;;;;;;;10.50;7.22;;;8.10;99.90;;;;;;5071584;28;20045;-68
2022/11/23 02:35:32;;;;;;;9.60;6.32;;;8.20;99.90;;;;;;5054474;28;20057;-69
2022/11/23 02:38:00;;;;;;;10.65;6.18;;;8.10;99.90;;;;;;5054751;28;20055;-69
2022/11/23 02:40:35;;;;;;;13.18;6.30;;;8.10;99.90;;;;;;5071317;28;20036;-69
2022/11/23 02:43:01;;;;;;;7.85;6.20;;;8.10;99.90;;;;;;5072611;28;20397;-68
2022/11/23 02:45:39;;;;;;;7.95;5.65;;;8.10;99.90;;;;;;5072656;28;20158;-68
2022/11/23 02:48:05;;;;;;;11.57;6.25;;;8.10;99.90;;;;;;5072524;28;20037;-68
2022/11/23 02:50:31;;;;;;;7.90;5.68;;;8.20;99.90;;;;;;5072657;28;20090;-68
2022/11/23 02:52:57;;;;;;;8.07;5.82;;;8.20;99.90;;;;;;5072737;28;20468;-68
2022/11/23 02:55:23;;;;;;;8.77;5.57;;;8.10;99.90;;;;;;5072340;28;20087;-68
2022/11/23 02:57:49;;;;;;;10.50;6.15;;;8.10;99.90;;;;;;5072365;28;20043;-68
2022/11/23 03:00:15;;;;;;;10.18;6.88;;;8.20;99.90;;;;;;5072733;28;20420;-69
2022/11/23 03:02:41;;;;;;;10.57;6.70;;;8.20;99.90;;;;;;5072269;28;20101;-68
2022/11/23 03:05:07;;;;;;;11.55;6.93;;;8.20;99.90;;;;;;5072360;28;20409;-69
2022/11/23 03:07:32;;;;;;;12.75;6.45;;;8.20;99.90;;;;;;5072222;28;20428;-68
2022/11/23 03:09:58;;;;;;;12.23;7.55;;;8.20;99.90;;;;;;5072334;28;20107;-68
2022/11/23 03:12:23;;;;;;;10.65;6.85;;;8.20;99.90;;;;;;5072348;28;20148;-68
2022/11/23 03:14:49;;;;;;;10.35;6.75;;;8.20;99.90;;;;;;5053838;28;20080;-68
2022/11/23 03:17:14;;;;;;;14.25;7.03;;;8.20;99.90;;;;;;5072574;28;20040;-69
2022/11/23 03:19:40;;;;;;;15.68;7.72;;;8.20;99.90;;;;;;5071604;28;20063;-68
2022/11/23 03:22:05;;;;;;;11.05;7.20;;;8.20;99.90;;;;;;5072137;28;20028;-68
2022/11/23 03:24:31;;;;;;;11.93;7.70;;;8.20;99.90;;;;;;5071954;28;20044;-68
2022/11/23 03:26:57;;;;;;;10.88;6.95;;;8.20;99.90;;;;;;5054089;28;20033;-69
2022/11/23 03:29:25;;;;;;;11.48;7.43;;;8.20;99.90;;;;;;5071870;28;20089;-68
2022/11/23 03:31:54;;;;;;;13.20;7.90;;;8.20;99.90;;;;;;5072048;28;20043;-69
2022/11/23 03:34:20;;;;;;;13.85;8.23;;;8.30;99.90;;;;;;5071676;28;20051;-68
2022/11/23 03:36:46;;;;;;;14.93;8.05;;;8.20;99.90;;;;;;5071804;28;20047;-68
2022/11/23 03:39:11;;;;;;;12.52;7.03;;;8.30;99.90;;;;;;5070463;28;20037;-67
2022/11/23 03:41:37;;;;;;;11.13;7.68;;;8.30;99.90;;;;;;5071490;28;20059;-69
2022/11/23 03:44:03;;;;;;;15.93;8.25;;;8.30;99.90;;;;;;5070214;28;20071;-68
2022/11/23 03:46:29;;;;;;;11.60;7.32;;;8.30;99.90;;;;;;5071316;28;20037;-68
2022/11/23 03:48:54;;;;;;;14.20;8.70;;;8.30;99.90;;;;;;5071884;28;20120;-68
2022/11/23 03:51:20;;;;;;;13.98;7.82;;;8.30;99.90;;;;;;5071737;28;20029;-68
2022/11/23 03:53:45;;;;;;;16.98;8.25;;;8.30;99.90;;;;;;5071027;28;20400;-69
2022/11/23 03:56:12;;;;;;;18.73;8.43;;;8.30;99.90;;;;;;5071557;28;20081;-69
2022/11/23 03:58:37;;;;;;;18.63;9.40;;;8.30;99.90;;;;;;5071546;28;20040;-68
2022/11/23 04:01:03;;;;;;;14.25;8.55;;;8.30;99.90;;;;;;5071208;28;20040;-68
2022/11/23 04:03:29;;;;;;;16.23;8.45;;;8.30;99.90;;;;;;5071236;28;20047;-67
2022/11/23 04:05:54;;;;;;;16.70;8.43;;;8.30;99.90;;;;;;5071239;28;20097;-68
2022/11/23 04:08:20;;;;;;;16.92;9.23;;;8.30;99.90;;;;;;5071326;28;20040;-68
2022/11/23 04:10:45;;;;;;;17.77;8.45;;;8.30;99.90;;;;;;5071317;28;20048;-68
2022/11/23 04:13:11;;;;;;;14.60;8.60;;;8.30;99.90;;;;;;5071077;28;20052;-68
2022/11/23 04:15:37;;;;;;;16.23;8.88;;;8.30;99.90;;;;;;5070807;28;20052;-67
2022/11/23 04:18:02;;;;;;;17.00;8.68;;;8.30;99.90;;;;;;5070952;28;20036;-68
2022/11/23 04:20:28;;;;;;;18.50;8.45;;;8.30;99.90;;;;;;5071028;28;20036;-67
2022/11/23 04:22:53;;;;;;;17.25;8.75;;;8.30;99.90;;;;;;5070839;28;20502;-69
2022/11/23 04:25:19;;;;;;;21.05;9.13;;;8.30;99.90;;;;;;5070791;28;20041;-68
2022/11/23 04:27:45;;;;;;;19.90;8.57;;;8.30;99.90;;;;;;5070996;28;20136;-69
2022/11/23 04:30:11;;;;;;;16.52;8.10;;;8.30;99.90;;;;;;5071233;28;20043;-69
2022/11/23 04:32:37;;;;;;;16.88;8.25;;;8.30;99.90;;;;;;5070654;28;20040;-69
2022/11/23 04:35:02;;;;;;;17.90;9.23;;;8.30;99.90;;;;;;5070355;28;20044;-68
2022/11/23 04:37:28;;;;;;;16.52;9.52;;;8.30;99.90;;;;;;5071087;28;20039;-68
2022/11/23 04:39:54;;;;;;;13.90;9.15;;;8.30;99.90;;;;;;5070737;28;20573;-68
2022/11/23 04:42:19;;;;;;;14.90;9.07;;;8.30;99.90;;;;;;5070965;28;20055;-68
2022/11/23 04:44:45;;;;;;;15.93;8.55;;;8.30;99.90;;;;;;5068938;28;20036;-69
2022/11/23 04:47:11;;;;;;;16.80;8.23;;;8.30;99.90;;;;;;5071134;28;20068;-67
2022/11/23 04:49:37;;;;;;;18.73;8.90;;;8.30;99.90;;;;;;5070686;28;20443;-67
2022/11/23 04:52:03;;;;;;;17.77;9.18;;;8.30;99.90;;;;;;5071057;28;20116;-66
2022/11/23 04:54:29;;;;;;;17.15;8.73;;;8.30;99.90;;;;;;5071668;28;20045;-67
2022/11/23 04:56:55;;;;;;;17.92;9.80;;;8.30;99.90;;;;;;5074775;28;20045;-67
2022/11/23 04:59:21;;;;;;;20.77;8.82;;;8.30;99.90;;;;;;5074660;28;20048;-66
2022/11/23 05:01:47;;;;;;;16.25;8.43;;;8.30;99.90;;;;;;5074716;28;20374;-66
2022/11/23 05:04:13;;;;;;;18.02;9.15;;;8.30;99.90;;;;;;5056294;28;20424;-67
2022/11/23 05:06:38;;;;;;;14.63;8.38;;;8.30;99.90;;;;;;5056712;28;20123;-67
2022/11/23 05:09:04;;;;;;;25.20;9.25;;;8.40;99.90;;;;;;5074566;28;20072;-66
2022/11/23 05:11:29;;;;;;;15.55;8.00;;;8.40;99.90;;;;;;5074599;28;20090;-67
2022/11/23 05:13:55;;;;;;;18.42;8.98;;;8.40;99.90;;;;;;5074131;28;20040;-67
2022/11/23 05:16:21;;;;;;;15.98;8.23;;;8.40;99.90;;;;;;5073198;28;20082;-67
2022/11/23 05:18:46;;;;;;;14.05;7.75;;;8.40;99.90;;;;;;5073204;28;20123;-67
2022/11/23 05:21:12;;;;;;;18.55;7.55;;;8.40;99.90;;;;;;5074348;28;20032;-67
2022/11/23 05:23:37;;;;;;;17.23;8.25;;;8.30;99.90;;;;;;5073893;28;20048;-66
2022/11/23 05:26:03;;;;;;;15.93;7.47;;;8.30;99.90;;;;;;5074174;28;20040;-66
2022/11/23 05:28:28;;;;;;;14.48;7.45;;;8.30;99.90;;;;;;5074377;28;20774;-67
2022/11/23 05:30:54;;;;;;;11.25;7.20;;;8.30;99.90;;;;;;5074471;28;20087;-66
2022/11/23 05:33:19;;;;;;;14.70;7.13;;;8.30;99.90;;;;;;5073959;28;20528;-67
2022/11/23 05:35:45;;;;;;;14.70;6.47;;;8.30;99.90;;;;;;5072611;28;20044;-67
2022/11/23 05:38:10;;;;;;;9.98;6.28;;;8.30;99.90;;;;;;5056013;28;20040;-67
2022/11/23 05:40:36;;;;;;;11.63;5.78;;;8.30;99.90;;;;;;5074435;28;20037;-67
2022/11/23 05:43:02;;;;;;;15.23;6.55;;;8.30;99.90;;;;;;5073882;28;20047;-67
2022/11/23 05:45:28;;;;;;;10.77;6.22;;;8.20;99.90;;;;;;5074047;28;20115;-66
2022/11/23 05:47:58;;;;;;;10.90;5.80;;;8.20;99.90;;;;;;5074007;28;20674;-67
2022/11/23 05:50:25;;;;;;;7.15;5.32;;;8.20;99.90;;;;;;5072665;28;20405;-67
2022/11/23 05:52:51;;;;;;;11.88;5.10;;;8.20;99.90;;;;;;5074012;28;20090;-66
2022/11/23 05:55:17;;;;;;;15.23;5.30;;;8.10;99.90;;;;;;5073650;28;20439;-66
2022/11/23 05:57:42;;;;;;;15.18;6.03;;;8.10;99.90;;;;;;5073767;28;20044;-67
2022/11/23 06:00:09;;;;;;;11.35;5.65;;;8.10;99.90;;;;;;5072263;28;20101;-67
2022/11/23 06:02:36;;;;;;;11.48;5.10;;;8.10;99.90;;;;;;5073571;28;20036;-67
2022/11/23 06:05:01;;;;;;;12.23;4.75;;;8.10;99.90;;;;;;5072367;28;20512;-66
2022/11/23 06:07:27;;;;;;;13.50;4.28;;;8.10;99.90;;;;;;5073585;28;20115;-66
2022/11/23 06:09:52;;;;;;;8.73;4.53;;;8.00;99.90;;;;;;5073355;28;20044;-66
2022/11/23 06:12:18;;;;;;;12.88;4.70;;;8.00;99.90;;;;;;5073624;28;20040;-66
2022/11/23 06:14:43;;;;;;;12.73;5.38;;;8.00;99.90;;;;;;5071670;28;20459;-66
2022/11/23 06:17:09;;;;;;;8.35;4.35;;;8.00;99.90;;;;;;5073502;28;20070;-66
2022/11/23 06:19:35;;;;;;;10.38;4.28;;;8.00;99.90;;;;;;5073531;28;20072;-66
2022/11/23 06:22:00;;;;;;;12.70;4.22;;;7.90;99.90;;;;;;5073294;28;20032;-66
2022/11/23 06:24:26;;;;;;;8.30;4.30;;;7.80;99.90;;;;;;5073101;28;20120;-67
2022/11/23 06:26:52;;;;;;;8.45;3.70;;;7.80;99.90;;;;;;5073218;28;20040;-67
2022/11/23 06:29:19;;;;;;;8.25;4.22;;;7.80;99.90;;;;;;5073390;28;20068;-66
2022/11/23 06:31:45;;;;;;;9.68;3.80;;;7.80;99.90;;;;;;5054714;28;20512;-66
2022/11/23 06:34:10;;;;;;;10.38;3.85;;;7.80;99.90;;;;;;5055107;28;20519;-66
2022/11/23 06:36:36;;;;;;;10.95;3.97;;;7.70;99.90;;;;;;5071718;28;20044;-66
2022/11/23 06:39:02;;;;;;;7.95;4.13;;;7.70;99.90;;;;;;5073023;28;20040;-67
2022/11/23 06:41:28;;;;;;;13.07;3.90;;;7.70;99.90;;;;;;5054902;28;20044;-66
2022/11/23 06:43:53;;;;;;;9.25;4.25;;;7.70;99.90;;;;;;5071129;28;20043;-66
2022/11/23 06:46:19;;;;;;;11.20;4.05;;;7.60;99.90;;;;;;5073147;28;20444;-67
2022/11/23 06:48:45;;;;;;;9.13;4.40;;;7.60;99.90;;;;;;5072918;28;20480;-66
2022/11/23 06:51:11;;;;;;;11.68;4.32;;;7.60;99.90;;;;;;5072863;28;20493;-66
2022/11/23 06:53:37;;;;;;;8.57;4.03;;;7.60;99.90;;;;;;5072558;28;20101;-66
2022/11/23 06:56:03;;;;;;;7.13;4.00;;;7.60;99.90;;;;;;5072301;28;20044;-67
2022/11/23 06:58:29;;;;;;;13.25;4.47;;;7.60;99.90;;;;;;5072163;28;20431;-67
2022/11/23 07:01:02;;;;;;;5.82;3.60;;;7.60;99.90;;;;;;5070971;28;20059;-66
2022/11/23 07:03:28;;;;;;;13.68;4.28;;;7.50;99.90;;;;;;5067784;28;20041;-67
2022/11/23 07:05:54;;;;;;;11.70;3.60;;;7.60;99.90;;;;;;5067678;28;20051;-66
2022/11/23 07:08:20;;;;;;;10.38;4.03;;;7.50;99.90;;;;;;5069476;28;20032;-67
2022/11/23 07:10:45;;;;;;;10.27;4.20;;;7.60;99.90;;;;;;5070602;28;20039;-66
2022/11/23 07:13:11;;;;;;;7.78;3.70;;;7.60;99.90;;;;;;5070905;28;20040;-66
2022/11/23 07:15:38;;;;;;;13.63;5.65;;;7.60;99.90;;;;;;5069273;28;20100;-66
2022/11/23 07:18:04;;;;;;;7.05;3.95;;;7.60;99.90;;;;;;5068315;28;20051;-66
2022/11/23 07:20:30;;;;;;;15.57;4.10;;;7.60;99.90;;;;;;5067246;28;20049;-66
2022/11/23 07:23:10;;;;;;;14.75;3.95;;;7.70;99.90;;;;;;5067678;28;20382;-69
2022/11/23 07:25:37;;;;;;;7.55;4.03;;;7.70;99.90;;;;;;5051275;28;20041;-66
2022/11/23 07:28:05;;;;;;;12.20;4.20;;;7.70;99.90;;;;;;5071751;28;20032;-66
2022/11/23 07:30:32;;;;;;;11.00;4.15;;;7.70;99.90;;;;;;5071036;28;20396;-66
2022/11/23 07:33:03;;;;;;;11.13;3.85;;;7.70;99.90;;;;;;5070675;28;20041;-66
2022/11/23 07:35:30;;;;;;;9.60;4.18;;;7.70;99.90;;;;;;5069378;28;20400;-66
2022/11/23 07:37:56;;;;;;;8.60;4.00;;;7.70;99.90;;;;;;5070807;28;20055;-66
2022/11/23 07:40:21;;;;;;;9.23;3.65;;;7.80;99.90;;;;;;5053133;28;20032;-66
2022/11/23 07:42:47;;;;;;;11.27;5.10;;;7.80;99.90;;;;;;5069007;28;20044;-66
2022/11/23 07:45:13;;;;;;;11.82;3.85;;;7.80;99.90;;;;;;5069046;28;20040;-66
2022/11/23 07:47:38;;;;;;;9.32;4.03;;;7.90;99.90;;;;;;5070392;28;20485;-66
2022/11/23 07:50:06;;;;;;;12.82;4.15;;;7.80;99.90;;;;;;5070905;28;20079;-66
2022/11/23 07:52:32;;;;;;;10.90;4.45;;;7.90;99.90;;;;;;5053375;28;20043;-66
2022/11/23 07:54:59;;;;;;;5.95;3.55;;;7.90;99.90;;;;;;5071047;28;20028;-66
2022/11/23 07:57:25;;;;;;;13.25;3.72;;;7.90;99.90;;;;;;5071473;28;20044;-66
2022/11/23 07:59:51;;;;;;;10.82;4.55;;;8.00;99.90;;;;;;5071235;28;20630;-67
2022/11/23 08:02:16;;;;;;;11.50;3.55;;;8.00;99.90;;;;;;5071529;28;20032;-66
2022/11/23 08:04:43;;;;;;;9.93;4.10;;;8.00;99.90;;;;;;5071218;28;20048;-67
2022/11/23 08:07:09;;;;;;;5.55;3.17;;;8.10;99.90;;;;;;5071383;28;20143;-67
2022/11/23 08:09:34;;;;;;;10.70;3.88;;;8.10;99.90;;;;;;5071551;28;20139;-67
2022/11/23 08:12:00;;;;;;;9.50;3.78;;;8.10;99.90;;;;;;5071316;28;20036;-66
2022/11/23 08:14:25;;;;;;;8.43;3.25;;;8.10;99.90;;;;;;5070761;28;20044;-67
2022/11/23 08:16:51;;;;;;;10.52;4.03;;;8.20;99.90;;;;;;5071130;28;20076;-66
2022/11/23 08:19:17;;;;;;;16.95;4.53;;;8.20;99.90;;;;;;5070897;28;20036;-66
2022/11/23 08:21:43;;;;;;;16.27;4.10;;;8.20;99.90;;;;;;5069524;28;20055;-66
2022/11/23 08:24:09;;;;;;;13.95;4.10;;;8.30;99.90;;;;;;5070683;28;20127;-67
2022/11/23 08:26:34;;;;;;;10.23;3.67;;;8.30;99.90;;;;;;5071067;28;20041;-66
2022/11/23 08:29:00;;;;;;;13.25;3.65;;;8.30;99.90;;;;;;5069368;28;20043;-67
2022/11/23 08:31:26;;;;;;;14.00;3.97;;;8.30;99.90;;;;;;5070868;28;20070;-66
2022/11/23 08:33:51;;;;;;;12.93;3.85;;;8.30;99.90;;;;;;5052643;28;20044;-66
2022/11/23 08:36:17;;;;;;;9.43;3.63;;;8.40;99.90;;;;;;5052822;28;20416;-66
2022/11/23 08:38:42;;;;;;;9.15;3.80;;;8.40;99.90;;;;;;5070698;28;20517;-67
2022/11/23 08:41:08;;;;;;;10.15;2.95;;;8.40;99.90;;;;;;5069470;28;20147;-66
2022/11/23 08:43:34;;;;;;;12.75;3.75;;;8.40;99.90;;;;;;5070679;28;20139;-66
2022/11/23 08:46:01;;;;;;;13.18;4.05;;;8.40;99.90;;;;;;5069969;28;20058;-69
2022/11/23 08:48:27;;;;;;;19.70;3.45;;;8.50;99.90;;;;;;5070611;28;20123;-66
2022/11/23 08:50:53;;;;;;;10.70;3.55;;;8.50;99.90;;;;;;5070694;28;20123;-66
2022/11/23 08:53:19;;;;;;;12.02;3.70;;;8.60;99.90;;;;;;5052554;28;20141;-66
2022/11/23 08:55:45;;;;;;;8.90;4.07;;;8.60;99.90;;;;;;5070419;28;20496;-67
2022/11/23 08:58:11;;;;;;;9.77;3.22;;;8.60;99.90;;;;;;5052670;28;20080;-67
2022/11/23 09:00:37;;;;;;;8.60;3.63;;;8.70;99.90;;;;;;5070699;28;20412;-67
2022/11/23 09:03:02;;;;;;;9.57;3.97;;;8.70;99.90;;;;;;5069084;28;20044;-67
2022/11/23 09:05:29;;;;;;;12.52;3.75;;;8.70;99.90;;;;;;5070437;28;20044;-67
2022/11/23 09:07:55;;;;;;;8.88;3.20;;;8.70;99.90;;;;;;5070979;28;20052;-67
2022/11/23 09:10:20;;;;;;;9.57;3.03;;;8.80;99.90;;;;;;5070827;28;20048;-67
2022/11/23 09:12:47;;;;;;;7.68;3.00;;;8.80;99.90;;;;;;5070462;28;20416;-69
2022/11/23 09:15:13;;;;;;;14.48;4.00;;;8.80;99.90;;;;;;5070195;28;20666;-69
2022/11/23 09:17:38;;;;;;;9.88;3.28;;;8.80;99.90;;;;;;5070221;28;20070;-69
2022/11/23 09:20:05;;;;;;;11.35;3.25;;;8.80;99.90;;;;;;5070314;28;20040;-69
2022/11/23 09:22:30;;;;;;;8.85;3.20;;;8.80;99.90;;;;;;5070573;28;20048;-69
2022/11/23 09:24:56;;;;;;;13.18;3.25;;;8.90;99.90;;;;;;5068609;28;20040;-69
2022/11/23 09:27:22;;;;;;;14.48;3.60;;;8.90;99.90;;;;;;5070308;28;20037;-69
2022/11/23 09:29:47;;;;;;;12.32;3.20;;;8.90;99.90;;;;;;5070370;28;20040;-69
2022/11/23 09:32:13;;;;;;;13.38;3.85;;;9.00;99.90;;;;;;5051993;28;20421;-69
2022/11/23 09:34:39;;;;;;;7.82;3.10;;;9.00;99.90;;;;;;5068615;28;20511;-69
2022/11/23 09:37:05;;;;;;;7.50;2.70;;;9.00;99.90;;;;;;5070209;28;20047;-69
2022/11/23 09:39:30;;;;;;;10.95;2.80;;;9.00;99.90;;;;;;5070481;28;20048;-69
2022/11/23 09:42:28;;;;;;;20.08;4.03;;;9.10;99.90;;;;;;5073852;28;20112;-69
2022/11/23 09:45:10;;;;;;;13.85;2.75;;;9.10;99.90;;;;;;5073798;28;20055;-69
2022/11/23 09:47:54;;;;;;;8.63;2.40;;;9.20;99.90;;;;;;5074055;28;20037;-69
2022/11/23 09:50:28;;;;;;;9.55;2.78;;;9.10;99.90;;;;;;5072572;28;20413;-70
2022/11/23 09:52:54;;;;;;;5.43;2.50;;;9.10;99.90;;;;;;5073241;28;20044;-69
2022/11/23 09:55:54;;;;;;;15.27;3.00;;;9.00;99.90;;;;;;5072075;28;20040;-70
2022/11/23 09:58:22;;;;;;;9.80;2.80;;;9.00;99.90;;;;;;5061474;28;20060;-70
2022/11/23 10:01:01;;;;;;;13.45;2.63;;;9.00;99.90;;;;;;5073681;28;20391;-70
2022/11/23 10:03:28;;;;;;;7.57;2.40;;;9.00;99.90;;;;;;5073376;28;20047;-70
2022/11/23 10:06:13;;;;;;;5.38;2.67;;;9.00;99.90;;;;;;5073201;28;20040;-70
2022/11/23 10:08:47;;;;;;;9.68;2.70;;;9.00;99.90;;;;;;5073483;28;20041;-70
2022/11/23 10:11:40;;;;;;;7.60;2.40;;;8.90;99.90;;;;;;5073336;28;20125;-71
2022/11/23 10:14:50;;;;;;;12.40;2.40;;;8.90;99.90;;;;;;5072258;28;20071;-70
2022/11/23 10:17:27;;;;;;;9.07;2.60;;;8.90;99.90;;;;;;5017678;28;20065;-70
2022/11/23 10:20:26;;;;;;;7.15;2.75;;;8.80;99.90;;;;;;5033852;28;20092;-70
2022/11/23 10:23:00;;;;;;;14.23;3.28;;;8.80;99.90;;;;;;5050252;28;20041;-71
2022/11/23 10:25:32;;;;;;;9.60;2.85;;;8.80;99.90;;;;;;5050072;28;20072;-70
2022/11/23 10:28:00;;;;;;;6.10;2.38;;;8.80;99.90;;;;;;5050621;28;20060;-70
2022/11/23 10:30:26;;;;;;;14.95;2.42;;;8.80;99.90;;;;;;5050292;28;20051;-70
2022/11/23 10:33:16;;;;;;;9.48;2.00;;;8.80;99.90;;;;;;5050451;28;20091;-70
2022/11/23 10:35:41;;;;;;;13.52;2.83;;;8.80;99.90;;;;;;5033538;28;20553;-70
2022/11/23 10:38:11;;;;;;;14.82;2.55;;;8.80;99.90;;;;;;5017366;28;20119;-70
2022/11/23 10:40:42;;;;;;;9.80;3.10;;;8.80;99.90;;;;;;5050326;28;20052;-70
2022/11/23 10:43:19;;;;;;;12.88;3.38;;;8.80;99.90;;;;;;5050203;28;20721;-70
2022/11/23 10:45:45;;;;;;;10.65;2.65;;;8.80;99.90;;;;;;5033451;28;20194;-70
2022/11/23 10:48:11;;;;;;;7.05;3.10;;;8.90;99.90;;;;;;5033531;28;20544;-70
2022/11/23 10:50:39;;;;;;;12.45;2.70;;;8.90;99.90;;;;;;5033560;28;20041;-70
2022/11/23 10:53:05;;;;;;;13.52;2.70;;;9.00;99.90;;;;;;5063795;28;20063;-70
2022/11/23 10:55:44;;;;;;;11.07;2.67;;;9.00;99.90;;;;;;5072134;28;20044;-70
2022/11/23 10:58:28;;;;;;;8.95;2.33;;;9.10;99.90;;;;;;5072540;28;20123;-71
2022/11/23 11:01:06;;;;;;;16.55;2.45;;;9.30;99.90;;;;;;5071099;28;20041;-70
2022/11/23 11:03:33;;;;;;;11.88;2.63;;;9.40;99.90;;;;;;5072176;28;20048;-70
2022/11/23 11:06:00;;;;;;;6.53;1.98;;;9.40;99.90;;;;;;5072015;28;20798;-69
2022/11/23 11:08:30;;;;;;;7.07;2.08;;;9.50;99.90;;;;;;5072390;28;20432;-70
2022/11/23 11:11:21;;;;;;;10.25;2.28;;;9.50;99.90;;;;;;5072156;28;20032;-70
2022/11/23 11:13:48;;;;;;;6.57;2.60;;;9.40;99.90;;;;;;5038554;28;20505;-70
2022/11/23 11:17:06;;;;;;;8.48;2.53;;;9.40;99.90;;;;;;5070026;28;20056;-70
2022/11/23 11:19:33;;;;;;;6.82;2.53;;;9.40;99.90;;;;;;5070918;28;20049;-70
2022/11/23 11:22:02;;;;;;;11.30;1.90;;;9.50;99.90;;;;;;5072074;28;20049;-70
2022/11/23 11:24:43;;;;;;;10.60;2.38;;;9.50;99.90;;;;;;5071749;28;20051;-70
2022/11/23 11:27:19;;;;;;;10.43;2.00;;;9.60;99.90;;;;;;5072316;28;20033;-70
2022/11/23 11:29:47;;;;;;;12.88;2.20;;;9.60;99.90;;;;;;5070535;28;20089;-70
2022/11/23 11:32:24;;;;;;;8.88;1.98;;;9.70;99.90;;;;;;5072163;28;20044;-70
2022/11/23 11:34:57;;;;;;;10.70;2.25;;;9.60;99.90;;;;;;5070354;28;20040;-70
2022/11/23 11:37:36;;;;;;;6.55;1.83;;;9.70;99.90;;;;;;5072043;28;20040;-70
2022/11/23 11:40:12;;;;;;;8.77;1.80;;;9.70;99.90;;;;;;5070283;28;20056;-70
2022/11/23 11:42:43;;;;;;;4.13;1.30;;;9.80;99.90;;;;;;5053765;28;20051;-70
2022/11/23 11:45:24;;;;;;;7.50;1.80;;;9.80;99.90;;;;;;5071073;28;20040;-70
2022/11/23 11:48:21;;;;;;;10.15;1.60;;;9.80;99.90;;;;;;5071649;28;20533;-70
2022/11/23 11:50:52;;;;;;;8.13;1.95;;;9.80;99.90;;;;;;5068220;28;20123;-70
2022/11/23 11:53:52;;;;;;;7.25;2.05;;;9.80;99.90;;;;;;5071401;28;20048;-70
2022/11/23 11:56:23;;;;;;;9.48;1.85;;;9.90;99.90;;;;;;5068199;28;20053;-70
2022/11/23 11:59:01;;;;;;;6.90;1.77;;;9.90;99.90;;;;;;5071492;28;20047;-70
2022/11/23 12:01:58;;;;;;;5.85;1.83;;;9.90;99.90;;;;;;5071628;28;20048;-70
2022/11/23 12:04:26;;;;;;;13.15;2.00;;;9.90;99.90;;;;;;5070691;28;20036;-70
2022/11/23 12:07:15;;;;;;;11.93;2.00;;;9.90;99.90;;;;;;5071400;28;20452;-71
2022/11/23 12:09:45;;;;;;;10.63;2.25;;;10.00;99.90;;;;;;5071259;28;20493;-70
2022/11/23 12:12:21;;;;;;;7.20;2.00;;;10.00;99.90;;;;;;5071136;28;20067;-70
2022/11/23 12:14:46;;;;;;;11.30;2.50;;;10.00;99.90;;;;;;5070732;28;20409;-70
2022/11/23 12:17:44;;;;;;;17.35;3.03;;;10.00;99.90;;;;;;5071214;28;20260;-70
2022/11/23 12:20:22;;;;;;;7.15;3.20;;;10.00;99.90;;;;;;5071001;28;20619;-69
2022/11/23 12:23:06;;;;;;;9.50;1.92;;;10.00;99.90;;;;;;5052811;28;20135;-70
2022/11/23 12:25:35;;;;;;;10.93;2.72;;;10.00;99.90;;;;;;5069454;28;20040;-70
2022/11/23 12:28:18;;;;;;;11.55;2.47;;;10.00;99.90;;;;;;5070994;28;20121;-71
2022/11/23 12:31:22;;;;;;;8.10;2.30;;;10.00;99.90;;;;;;5070036;28;20141;-69
2022/11/23 12:34:08;;;;;;;11.02;2.10;;;10.00;99.90;;;;;;5070374;28;20045;-67
2022/11/23 12:36:34;;;;;;;14.32;2.80;;;10.00;99.90;;;;;;5070984;28;20041;-68
2022/11/23 12:39:23;;;;;;;11.95;2.63;;;10.00;99.90;;;;;;5069757;28;20585;-67
2022/11/23 12:42:18;;;;;;;10.02;2.95;;;10.00;99.90;;;;;;5070715;28;20500;-67
2022/11/23 12:45:05;;;;;;;13.20;2.42;;;10.00;99.90;;;;;;5070209;28;20488;-67
2022/11/23 12:48:00;;;;;;;8.43;2.83;;;10.00;99.90;;;;;;5071264;28;20041;-68
2022/11/23 12:50:34;;;;;;;10.02;3.17;;;10.00;99.90;;;;;;5052797;28;20120;-67
2022/11/23 12:53:29;;;;;;;6.45;1.98;;;9.90;99.90;;;;;;5069300;28;20055;-67
2022/11/23 12:56:18;;;;;;;11.05;2.30;;;10.00;99.90;;;;;;5070562;28;20054;-67
2022/11/23 12:58:47;;;;;;;5.40;1.65;;;10.00;99.90;;;;;;5070752;28;20040;-67
2022/11/23 13:01:37;;;;;;;6.22;1.88;;;10.00;99.90;;;;;;5052588;28;20041;-67